sensor_id;sensor_type;location;lat;lon;timestamp;temperature;humidity
54461;DHT22;69977;49.414;11.010;2024-02-21T00:02:20;7.20;99.90
54461;DHT22;69977;49.414;11.010;2024-02-21T00:04:46;7.20;99.90
54461;DHT22;69977;49.414;11.010;2024-02-21T00:07:12;7.20;99.90
54461;DHT22;69977;49.414;11.010;2024-02-21T00:09:38;7.20;99.90
54461;DHT22;69977;49.414;11.010;2024-02-21T00:12:04;7.20;99.90
54461;DHT22;69977;49.414;11.010;2024-02-21T00:14:31;7.20;99.90
54461;DHT22;69977;49.414;11.010;2024-02-21T00:16:56;7.10;99.90
54461;DHT22;69977;49.414;11.010;2024-02-21T00:19:22;7.10;99.90
54461;DHT22;69977;49.414;11.010;2024-02-21T00:21:48;7.10;99.90
54461;DHT22;69977;49.414;11.010;2024-02-21T00:24:14;7.00;99.90
54461;DHT22;69977;49.414;11.010;2024-02-21T00:26:40;7.00;99.90
54461;DHT22;69977;49.414;11.010;2024-02-21T00:29:06;7.00;99.90
54461;DHT22;69977;49.414;11.010;2024-02-21T00:31:32;6.90;99.90
54461;DHT22;69977;49.414;11.010;2024-02-21T00:33:58;6.90;99.90
54461;DHT22;69977;49.414;11.010;2024-02-21T00:36:24;6.90;99.90
54461;DHT22;69977;49.414;11.010;2024-02-21T00:38:49;6.90;99.90
54461;DHT22;69977;49.414;11.010;2024-02-21T00:41:15;6.90;99.90
54461;DHT22;69977;49.414;11.010;2024-02-21T00:43:41;6.90;99.90
54461;DHT22;69977;49.414;11.010;2024-02-21T00:46:08;6.80;99.90
54461;DHT22;69977;49.414;11.010;2024-02-21T00:48:34;6.80;99.90
54461;DHT22;69977;49.414;11.010;2024-02-21T00:51:00;6.90;99.90
54461;DHT22;69977;49.414;11.010;2024-02-21T00:53:26;6.80;99.90
54461;DHT22;69977;49.414;11.010;2024-02-21T00:55:52;6.80;99.90
54461;DHT22;69977;49.414;11.010;2024-02-21T00:58:17;6.80;99.90
54461;DHT22;69977;49.414;11.010;2024-02-21T01:00:43;6.80;99.90
54461;DHT22;69977;49.414;11.010;2024-02-21T01:03:09;6.70;99.90
54461;DHT22;69977;49.414;11.010;2024-02-21T01:05:35;6.70;99.90
54461;DHT22;69977;49.414;11.010;2024-02-21T01:08:01;6.70;99.90
54461;DHT22;69977;49.414;11.010;2024-02-21T01:10:27;6.70;99.90
54461;DHT22;69977;49.414;11.010;2024-02-21T01:12:53;6.70;99.90
54461;DHT22;69977;49.414;11.010;2024-02-21T01:15:19;6.80;99.90
54461;DHT22;69977;49.414;11.010;2024-02-21T01:17:45;6.70;99.90
54461;DHT22;69977;49.414;11.010;2024-02-21T01:20:11;6.70;99.90
54461;DHT22;69977;49.414;11.010;2024-02-21T01:22:37;6.60;99.90
54461;DHT22;69977;49.414;11.010;2024-02-21T01:25:03;6.60;99.90
54461;DHT22;69977;49.414;11.010;2024-02-21T01:27:29;6.70;99.90
54461;DHT22;69977;49.414;11.010;2024-02-21T01:29:55;6.70;99.90
54461;DHT22;69977;49.414;11.010;2024-02-21T01:32:22;6.80;99.90
54461;DHT22;69977;49.414;11.010;2024-02-21T01:34:50;6.70;99.90
54461;DHT22;69977;49.414;11.010;2024-02-21T01:37:16;6.60;99.90
54461;DHT22;69977;49.414;11.010;2024-02-21T01:39:42;6.60;99.90
54461;DHT22;69977;49.414;11.010;2024-02-21T01:42:08;6.70;99.90
54461;DHT22;69977;49.414;11.010;2024-02-21T01:44:34;6.70;99.90
54461;DHT22;69977;49.414;11.010;2024-02-21T01:47:01;6.70;99.90
54461;DHT22;69977;49.414;11.010;2024-02-21T01:49:27;6.70;99.90
54461;DHT22;69977;49.414;11.010;2024-02-21T01:51:53;6.70;99.90
54461;DHT22;69977;49.414;11.010;2024-02-21T01:54:20;6.70;99.90
54461;DHT22;69977;49.414;11.010;2024-02-21T01:56:46;6.70;99.90
54461;DHT22;69977;49.414;11.010;2024-02-21T01:59:13;6.80;99.90
54461;DHT22;69977;49.414;11.010;2024-02-21T02:01:41;6.90;99.90
54461;DHT22;69977;49.414;11.010;2024-02-21T02:04:07;6.90;99.90
54461;DHT22;69977;49.414;11.010;2024-02-21T02:06:34;6.80;99.90
54461;DHT22;69977;49.414;11.010;2024-02-21T02:09:00;6.80;99.90
54461;DHT22;69977;49.414;11.010;2024-02-21T02:11:26;6.80;99.90
54461;DHT22;69977;49.414;11.010;2024-02-21T02:13:52;6.80;99.90
54461;DHT22;69977;49.414;11.010;2024-02-21T02:16:18;6.80;99.90
54461;DHT22;69977;49.414;11.010;2024-02-21T02:18:44;6.80;99.90
54461;DHT22;69977;49.414;11.010;2024-02-21T02:21:38;6.90;99.90
54461;DHT22;69977;49.414;11.010;2024-02-21T02:24:01;6.90;99.90
54461;DHT22;69977;49.414;11.010;2024-02-21T02:26:27;7.00;99.90
54461;DHT22;69977;49.414;11.010;2024-02-21T02:28:53;6.90;99.90
54461;DHT22;69977;49.414;11.010;2024-02-21T02:31:19;6.90;99.90
54461;DHT22;69977;49.414;11.010;2024-02-21T02:33:45;6.90;99.90
54461;DHT22;69977;49.414;11.010;2024-02-21T02:36:11;7.00;99.90
54461;DHT22;69977;49.414;11.010;2024-02-21T02:38:37;7.00;99.90
54461;DHT22;69977;49.414;11.010;2024-02-21T02:41:03;7.00;99.90
54461;DHT22;69977;49.414;11.010;2024-02-21T02:43:29;7.00;99.90
54461;DHT22;69977;49.414;11.010;2024-02-21T02:45:55;7.00;99.90
54461;DHT22;69977;49.414;11.010;2024-02-21T02:48:21;7.00;99.90
54461;DHT22;69977;49.414;11.010;2024-02-21T02:50:47;7.00;99.90
54461;DHT22;69977;49.414;11.010;2024-02-21T02:53:15;6.90;99.90
54461;DHT22;69977;49.414;11.010;2024-02-21T02:55:41;6.90;99.90
54461;DHT22;69977;49.414;11.010;2024-02-21T02:58:07;6.90;99.90
54461;DHT22;69977;49.414;11.010;2024-02-21T03:00:37;6.90;99.90
54461;DHT22;69977;49.414;11.010;2024-02-21T03:03:04;6.90;99.90
54461;DHT22;69977;49.414;11.010;2024-02-21T03:05:30;6.80;99.90
54461;DHT22;69977;49.414;11.010;2024-02-21T03:07:56;6.80;99.90
54461;DHT22;69977;49.414;11.010;2024-02-21T03:10:22;6.80;99.90
54461;DHT22;69977;49.414;11.010;2024-02-21T03:12:48;6.70;99.90
54461;DHT22;69977;49.414;11.010;2024-02-21T03:15:14;6.90;99.90
54461;DHT22;69977;49.414;11.010;2024-02-21T03:17:41;6.90;99.90
54461;DHT22;69977;49.414;11.010;2024-02-21T03:20:07;6.90;99.90
54461;DHT22;69977;49.414;11.010;2024-02-21T03:22:36;7.00;99.90
54461;DHT22;69977;49.414;11.010;2024-02-21T03:25:03;7.00;99.90
54461;DHT22;69977;49.414;11.010;2024-02-21T03:27:29;7.00;99.90
54461;DHT22;69977;49.414;11.010;2024-02-21T03:29:55;7.00;99.90
54461;DHT22;69977;49.414;11.010;2024-02-21T03:32:21;7.00;99.90
54461;DHT22;69977;49.414;11.010;2024-02-21T03:34:47;7.00;99.90
54461;DHT22;69977;49.414;11.010;2024-02-21T03:37:13;7.00;99.90
54461;DHT22;69977;49.414;11.010;2024-02-21T03:39:39;7.00;99.90
54461;DHT22;69977;49.414;11.010;2024-02-21T03:42:06;7.00;99.90
54461;DHT22;69977;49.414;11.010;2024-02-21T03:44:32;7.00;99.90
54461;DHT22;69977;49.414;11.010;2024-02-21T03:46:59;7.00;99.90
54461;DHT22;69977;49.414;11.010;2024-02-21T03:49:26;6.90;99.90
54461;DHT22;69977;49.414;11.010;2024-02-21T03:51:52;6.90;99.90
54461;DHT22;69977;49.414;11.010;2024-02-21T03:54:18;7.00;99.90
54461;DHT22;69977;49.414;11.010;2024-02-21T03:56:45;7.00;99.90
54461;DHT22;69977;49.414;11.010;2024-02-21T03:59:13;7.00;99.90
54461;DHT22;69977;49.414;11.010;2024-02-21T04:01:39;7.00;99.90
54461;DHT22;69977;49.414;11.010;2024-02-21T04:04:05;7.00;99.90
54461;DHT22;69977;49.414;11.010;2024-02-21T04:06:31;6.90;99.90
54461;DHT22;69977;49.414;11.010;2024-02-21T04:08:57;7.00;99.90
54461;DHT22;69977;49.414;11.010;2024-02-21T04:11:23;6.90;99.90
54461;DHT22;69977;49.414;11.010;2024-02-21T04:13:49;6.90;99.90
54461;DHT22;69977;49.414;11.010;2024-02-21T04:16:16;7.00;99.90
54461;DHT22;69977;49.414;11.010;2024-02-21T04:18:42;7.00;99.90
54461;DHT22;69977;49.414;11.010;2024-02-21T04:21:09;7.10;99.90
54461;DHT22;69977;49.414;11.010;2024-02-21T04:23:35;7.10;99.90
54461;DHT22;69977;49.414;11.010;2024-02-21T04:26:01;7.10;99.90
54461;DHT22;69977;49.414;11.010;2024-02-21T04:28:26;7.10;99.90
54461;DHT22;69977;49.414;11.010;2024-02-21T04:30:52;7.10;99.90
54461;DHT22;69977;49.414;11.010;2024-02-21T04:33:18;7.10;99.90
54461;DHT22;69977;49.414;11.010;2024-02-21T04:35:44;7.20;99.90
54461;DHT22;69977;49.414;11.010;2024-02-21T04:38:10;7.10;99.90
54461;DHT22;69977;49.414;11.010;2024-02-21T04:40:36;7.10;99.90
54461;DHT22;69977;49.414;11.010;2024-02-21T04:43:02;7.10;99.90
54461;DHT22;69977;49.414;11.010;2024-02-21T04:45:28;7.00;99.90
54461;DHT22;69977;49.414;11.010;2024-02-21T04:47:54;7.00;99.90
54461;DHT22;69977;49.414;11.010;2024-02-21T04:50:20;7.00;99.90
54461;DHT22;69977;49.414;11.010;2024-02-21T04:52:45;7.00;99.90
54461;DHT22;69977;49.414;11.010;2024-02-21T04:55:11;7.00;99.90
54461;DHT22;69977;49.414;11.010;2024-02-21T04:57:37;7.00;99.90
54461;DHT22;69977;49.414;11.010;2024-02-21T05:00:03;6.90;99.90
54461;DHT22;69977;49.414;11.010;2024-02-21T05:02:29;6.90;99.90
54461;DHT22;69977;49.414;11.010;2024-02-21T05:04:55;6.80;99.90
54461;DHT22;69977;49.414;11.010;2024-02-21T05:07:22;6.80;99.90
54461;DHT22;69977;49.414;11.010;2024-02-21T05:09:47;6.70;99.90
54461;DHT22;69977;49.414;11.010;2024-02-21T05:12:13;6.70;99.90
54461;DHT22;69977;49.414;11.010;2024-02-21T05:14:39;6.60;99.90
54461;DHT22;69977;49.414;11.010;2024-02-21T05:17:05;6.50;99.90
54461;DHT22;69977;49.414;11.010;2024-02-21T05:19:31;6.60;99.90
54461;DHT22;69977;49.414;11.010;2024-02-21T05:21:59;6.60;99.90
54461;DHT22;69977;49.414;11.010;2024-02-21T05:24:25;6.50;99.90
54461;DHT22;69977;49.414;11.010;2024-02-21T05:26:51;6.50;99.90
54461;DHT22;69977;49.414;11.010;2024-02-21T05:29:17;6.40;99.90
54461;DHT22;69977;49.414;11.010;2024-02-21T05:31:55;6.30;99.90
54461;DHT22;69977;49.414;11.010;2024-02-21T05:34:22;6.30;99.90
54461;DHT22;69977;49.414;11.010;2024-02-21T05:36:48;6.30;99.90
54461;DHT22;69977;49.414;11.010;2024-02-21T05:39:15;6.30;99.90
54461;DHT22;69977;49.414;11.010;2024-02-21T05:41:42;6.20;99.90
54461;DHT22;69977;49.414;11.010;2024-02-21T05:44:08;6.10;99.90
54461;DHT22;69977;49.414;11.010;2024-02-21T05:46:34;6.00;99.90
54461;DHT22;69977;49.414;11.010;2024-02-21T05:49:00;6.00;99.90
54461;DHT22;69977;49.414;11.010;2024-02-21T05:51:26;6.00;99.90
54461;DHT22;69977;49.414;11.010;2024-02-21T05:53:52;6.00;99.90
54461;DHT22;69977;49.414;11.010;2024-02-21T05:56:18;5.90;99.90
54461;DHT22;69977;49.414;11.010;2024-02-21T05:58:45;5.90;99.90
54461;DHT22;69977;49.414;11.010;2024-02-21T06:01:11;6.00;99.90
54461;DHT22;69977;49.414;11.010;2024-02-21T06:03:37;5.90;99.90
54461;DHT22;69977;49.414;11.010;2024-02-21T06:06:03;6.00;99.90
54461;DHT22;69977;49.414;11.010;2024-02-21T06:08:30;5.90;99.90
54461;DHT22;69977;49.414;11.010;2024-02-21T06:10:56;5.90;99.90
54461;DHT22;69977;49.414;11.010;2024-02-21T06:13:23;5.80;99.90
54461;DHT22;69977;49.414;11.010;2024-02-21T06:15:50;5.70;99.90
54461;DHT22;69977;49.414;11.010;2024-02-21T06:18:17;5.50;99.90
54461;DHT22;69977;49.414;11.010;2024-02-21T06:20:43;5.50;99.90
54461;DHT22;69977;49.414;11.010;2024-02-21T06:23:09;5.60;99.90
54461;DHT22;69977;49.414;11.010;2024-02-21T06:25:35;5.40;99.90
54461;DHT22;69977;49.414;11.010;2024-02-21T06:28:01;5.40;99.90
54461;DHT22;69977;49.414;11.010;2024-02-21T06:30:27;5.30;99.90
54461;DHT22;69977;49.414;11.010;2024-02-21T06:32:53;5.20;99.90
54461;DHT22;69977;49.414;11.010;2024-02-21T06:35:22;5.20;99.90
54461;DHT22;69977;49.414;11.010;2024-02-21T06:37:53;5.20;99.90
54461;DHT22;69977;49.414;11.010;2024-02-21T06:40:23;5.20;99.90
54461;DHT22;69977;49.414;11.010;2024-02-21T06:42:50;5.40;99.90
54461;DHT22;69977;49.414;11.010;2024-02-21T06:45:16;5.50;99.90
54461;DHT22;69977;49.414;11.010;2024-02-21T06:47:42;5.60;99.90
54461;DHT22;69977;49.414;11.010;2024-02-21T06:50:09;5.50;99.90
54461;DHT22;69977;49.414;11.010;2024-02-21T06:52:35;5.40;99.90
54461;DHT22;69977;49.414;11.010;2024-02-21T06:55:01;5.40;99.90
54461;DHT22;69977;49.414;11.010;2024-02-21T06:57:28;5.50;99.90
54461;DHT22;69977;49.414;11.010;2024-02-21T06:59:54;5.40;99.90
54461;DHT22;69977;49.414;11.010;2024-02-21T07:02:20;5.40;99.90
54461;DHT22;69977;49.414;11.010;2024-02-21T07:04:46;5.40;99.90
54461;DHT22;69977;49.414;11.010;2024-02-21T07:07:12;5.30;99.90
54461;DHT22;69977;49.414;11.010;2024-02-21T07:09:38;5.40;99.90
54461;DHT22;69977;49.414;11.010;2024-02-21T07:12:04;5.50;99.90
54461;DHT22;69977;49.414;11.010;2024-02-21T07:14:32;5.60;99.90
54461;DHT22;69977;49.414;11.010;2024-02-21T07:16:58;5.80;99.90
54461;DHT22;69977;49.414;11.010;2024-02-21T07:19:24;5.90;99.90
54461;DHT22;69977;49.414;11.010;2024-02-21T07:21:50;5.80;99.90
54461;DHT22;69977;49.414;11.010;2024-02-21T07:24:16;5.90;99.90
54461;DHT22;69977;49.414;11.010;2024-02-21T07:26:42;6.00;99.90
54461;DHT22;69977;49.414;11.010;2024-02-21T07:29:09;6.00;99.90
54461;DHT22;69977;49.414;11.010;2024-02-21T07:31:44;6.10;99.90
54461;DHT22;69977;49.414;11.010;2024-02-21T07:34:10;6.10;99.90
54461;DHT22;69977;49.414;11.010;2024-02-21T07:36:36;6.10;99.90
54461;DHT22;69977;49.414;11.010;2024-02-21T07:39:05;6.20;99.90
54461;DHT22;69977;49.414;11.010;2024-02-21T07:41:32;6.20;99.90
54461;DHT22;69977;49.414;11.010;2024-02-21T07:43:59;6.40;99.90
54461;DHT22;69977;49.414;11.010;2024-02-21T07:46:25;6.50;99.90
54461;DHT22;69977;49.414;11.010;2024-02-21T07:48:51;6.60;99.90
54461;DHT22;69977;49.414;11.010;2024-02-21T07:51:17;6.70;99.90
54461;DHT22;69977;49.414;11.010;2024-02-21T07:53:44;6.80;99.90
54461;DHT22;69977;49.414;11.010;2024-02-21T07:56:14;6.90;99.90
54461;DHT22;69977;49.414;11.010;2024-02-21T07:58:43;7.00;99.90
54461;DHT22;69977;49.414;11.010;2024-02-21T08:01:10;7.00;99.90
54461;DHT22;69977;49.414;11.010;2024-02-21T08:03:36;7.10;99.90
54461;DHT22;69977;49.414;11.010;2024-02-21T08:06:03;7.20;99.90
54461;DHT22;69977;49.414;11.010;2024-02-21T08:08:29;7.20;99.90
54461;DHT22;69977;49.414;11.010;2024-02-21T08:10:55;7.30;99.90
54461;DHT22;69977;49.414;11.010;2024-02-21T08:13:21;7.30;99.90
54461;DHT22;69977;49.414;11.010;2024-02-21T08:15:47;7.50;99.90
54461;DHT22;69977;49.414;11.010;2024-02-21T08:18:13;7.70;99.90
54461;DHT22;69977;49.414;11.010;2024-02-21T08:20:39;7.70;99.90
54461;DHT22;69977;49.414;11.010;2024-02-21T08:23:04;7.80;99.90
54461;DHT22;69977;49.414;11.010;2024-02-21T08:25:30;7.80;99.90
54461;DHT22;69977;49.414;11.010;2024-02-21T08:27:58;7.80;99.90
54461;DHT22;69977;49.414;11.010;2024-02-21T08:30:24;7.80;99.90
54461;DHT22;69977;49.414;11.010;2024-02-21T08:32:50;7.80;99.90
54461;DHT22;69977;49.414;11.010;2024-02-21T08:35:16;7.90;99.90
54461;DHT22;69977;49.414;11.010;2024-02-21T08:37:44;8.00;99.90
54461;DHT22;69977;49.414;11.010;2024-02-21T08:40:12;8.10;99.90
54461;DHT22;69977;49.414;11.010;2024-02-21T08:42:41;8.10;99.90
54461;DHT22;69977;49.414;11.010;2024-02-21T08:45:08;8.20;99.90
54461;DHT22;69977;49.414;11.010;2024-02-21T08:47:34;8.20;99.90
54461;DHT22;69977;49.414;11.010;2024-02-21T08:50:02;8.30;99.90
54461;DHT22;69977;49.414;11.010;2024-02-21T08:52:28;8.40;99.90
54461;DHT22;69977;49.414;11.010;2024-02-21T08:54:54;8.50;99.90
54461;DHT22;69977;49.414;11.010;2024-02-21T08:57:20;8.50;99.90
54461;DHT22;69977;49.414;11.010;2024-02-21T08:59:46;8.50;99.90
54461;DHT22;69977;49.414;11.010;2024-02-21T09:02:13;8.70;99.90
54461;DHT22;69977;49.414;11.010;2024-02-21T09:04:39;8.80;99.90
54461;DHT22;69977;49.414;11.010;2024-02-21T09:07:05;8.80;99.90
54461;DHT22;69977;49.414;11.010;2024-02-21T09:09:30;9.00;99.90
54461;DHT22;69977;49.414;11.010;2024-02-21T09:11:59;9.00;99.90
54461;DHT22;69977;49.414;11.010;2024-02-21T09:14:36;9.00;99.90
54461;DHT22;69977;49.414;11.010;2024-02-21T09:17:03;9.00;99.90
54461;DHT22;69977;49.414;11.010;2024-02-21T09:19:29;9.10;99.90
54461;DHT22;69977;49.414;11.010;2024-02-21T09:21:55;9.20;99.90
54461;DHT22;69977;49.414;11.010;2024-02-21T09:24:21;9.20;99.90
54461;DHT22;69977;49.414;11.010;2024-02-21T09:26:47;9.20;99.90
54461;DHT22;69977;49.414;11.010;2024-02-21T09:29:13;9.20;99.90
54461;DHT22;69977;49.414;11.010;2024-02-21T09:31:39;9.10;99.90
54461;DHT22;69977;49.414;11.010;2024-02-21T09:34:04;9.10;99.90
54461;DHT22;69977;49.414;11.010;2024-02-21T09:36:31;9.20;99.90
54461;DHT22;69977;49.414;11.010;2024-02-21T09:38:56;9.20;99.90
54461;DHT22;69977;49.414;11.010;2024-02-21T09:41:26;9.30;99.90
54461;DHT22;69977;49.414;11.010;2024-02-21T09:43:55;9.30;99.90
54461;DHT22;69977;49.414;11.010;2024-02-21T09:46:27;9.50;99.90
54461;DHT22;69977;49.414;11.010;2024-02-21T09:49:16;9.50;99.90
54461;DHT22;69977;49.414;11.010;2024-02-21T09:51:47;9.70;99.90
54461;DHT22;69977;49.414;11.010;2024-02-21T09:54:15;9.70;99.90
54461;DHT22;69977;49.414;11.010;2024-02-21T09:56:41;9.70;99.90
54461;DHT22;69977;49.414;11.010;2024-02-21T09:59:07;9.60;99.90
54461;DHT22;69977;49.414;11.010;2024-02-21T10:01:33;9.70;99.90
54461;DHT22;69977;49.414;11.010;2024-02-21T10:03:59;9.70;99.90
54461;DHT22;69977;49.414;11.010;2024-02-21T10:06:25;9.70;99.90
54461;DHT22;69977;49.414;11.010;2024-02-21T10:08:55;9.80;99.90
54461;DHT22;69977;49.414;11.010;2024-02-21T10:11:24;9.70;99.90
54461;DHT22;69977;49.414;11.010;2024-02-21T10:13:50;9.80;99.90
54461;DHT22;69977;49.414;11.010;2024-02-21T10:16:16;9.90;99.90
54461;DHT22;69977;49.414;11.010;2024-02-21T10:18:42;10.00;99.90
54461;DHT22;69977;49.414;11.010;2024-02-21T10:21:08;10.00;99.90
54461;DHT22;69977;49.414;11.010;2024-02-21T10:23:47;10.10;99.90
54461;DHT22;69977;49.414;11.010;2024-02-21T10:26:14;10.20;99.90
54461;DHT22;69977;49.414;11.010;2024-02-21T10:28:41;10.10;99.90
54461;DHT22;69977;49.414;11.010;2024-02-21T10:31:26;10.30;99.90
54461;DHT22;69977;49.414;11.010;2024-02-21T10:33:57;10.40;99.90
54461;DHT22;69977;49.414;11.010;2024-02-21T10:36:23;10.40;99.90
54461;DHT22;69977;49.414;11.010;2024-02-21T10:38:52;10.50;99.90
54461;DHT22;69977;49.414;11.010;2024-02-21T10:41:21;10.70;99.90
54461;DHT22;69977;49.414;11.010;2024-02-21T10:43:50;10.70;99.90
54461;DHT22;69977;49.414;11.010;2024-02-21T10:46:19;10.80;99.90
54461;DHT22;69977;49.414;11.010;2024-02-21T10:48:46;10.80;99.90
54461;DHT22;69977;49.414;11.010;2024-02-21T10:51:20;10.80;99.90
54461;DHT22;69977;49.414;11.010;2024-02-21T10:58:53;10.80;99.90
54461;DHT22;69977;49.414;11.010;2024-02-21T11:01:19;10.70;99.90
54461;DHT22;69977;49.414;11.010;2024-02-21T11:03:48;10.80;99.90
54461;DHT22;69977;49.414;11.010;2024-02-21T11:06:15;10.70;99.90
54461;DHT22;69977;49.414;11.010;2024-02-21T11:08:42;10.60;99.90
54461;DHT22;69977;49.414;11.010;2024-02-21T11:11:08;10.60;99.90
54461;DHT22;69977;49.414;11.010;2024-02-21T11:13:41;10.70;99.90
54461;DHT22;69977;49.414;11.010;2024-02-21T11:16:21;10.80;99.90
54461;DHT22;69977;49.414;11.010;2024-02-21T11:18:47;10.80;99.90
54461;DHT22;69977;49.414;11.010;2024-02-21T11:21:13;10.90;99.90
54461;DHT22;69977;49.414;11.010;2024-02-21T11:23:39;11.00;99.90
54461;DHT22;69977;49.414;11.010;2024-02-21T11:26:09;11.00;99.90
54461;DHT22;69977;49.414;11.010;2024-02-21T11:28:35;10.90;99.90
54461;DHT22;69977;49.414;11.010;2024-02-21T11:31:10;10.80;99.90
54461;DHT22;69977;49.414;11.010;2024-02-21T11:33:42;10.90;99.90
54461;DHT22;69977;49.414;11.010;2024-02-21T11:36:11;10.80;99.90
54461;DHT22;69977;49.414;11.010;2024-02-21T11:38:37;10.90;99.90
54461;DHT22;69977;49.414;11.010;2024-02-21T11:41:03;11.10;99.90
54461;DHT22;69977;49.414;11.010;2024-02-21T11:43:33;11.20;99.90
54461;DHT22;69977;49.414;11.010;2024-02-21T11:46:02;11.20;99.90
54461;DHT22;69977;49.414;11.010;2024-02-21T11:48:31;11.30;99.90
54461;DHT22;69977;49.414;11.010;2024-02-21T11:50:57;11.40;99.90
54461;DHT22;69977;49.414;11.010;2024-02-21T11:53:23;11.50;99.90
54461;DHT22;69977;49.414;11.010;2024-02-21T11:55:50;11.60;99.90
54461;DHT22;69977;49.414;11.010;2024-02-21T11:58:16;11.50;99.90
54461;DHT22;69977;49.414;11.010;2024-02-21T12:00:42;11.70;99.90
54461;DHT22;69977;49.414;11.010;2024-02-21T12:03:08;11.70;99.90
54461;DHT22;69977;49.414;11.010;2024-02-21T12:05:34;11.70;99.90
54461;DHT22;69977;49.414;11.010;2024-02-21T12:08:00;11.80;99.90
54461;DHT22;69977;49.414;11.010;2024-02-21T12:10:26;11.90;99.90
54461;DHT22;69977;49.414;11.010;2024-02-21T12:13:15;12.20;99.90
54461;DHT22;69977;49.414;11.010;2024-02-21T12:15:41;12.00;99.90
54461;DHT22;69977;49.414;11.010;2024-02-21T12:18:07;12.00;99.90
54461;DHT22;69977;49.414;11.010;2024-02-21T12:20:33;12.00;99.90
54461;DHT22;69977;49.414;11.010;2024-02-21T12:23:02;12.00;99.90
54461;DHT22;69977;49.414;11.010;2024-02-21T12:25:30;12.10;99.90
54461;DHT22;69977;49.414;11.010;2024-02-21T12:27:56;12.30;99.90
54461;DHT22;69977;49.414;11.010;2024-02-21T12:30:22;12.50;99.90
54461;DHT22;69977;49.414;11.010;2024-02-21T12:32:48;12.30;99.90
54461;DHT22;69977;49.414;11.010;2024-02-21T12:35:14;12.30;99.90
54461;DHT22;69977;49.414;11.010;2024-02-21T12:37:40;12.30;99.90
54461;DHT22;69977;49.414;11.010;2024-02-21T12:40:08;12.50;99.90
54461;DHT22;69977;49.414;11.010;2024-02-21T12:42:34;12.40;99.90
54461;DHT22;69977;49.414;11.010;2024-02-21T12:45:02;12.30;99.90
54461;DHT22;69977;49.414;11.010;2024-02-21T12:47:28;12.30;99.90
54461;DHT22;69977;49.414;11.010;2024-02-21T12:49:55;12.30;99.90
54461;DHT22;69977;49.414;11.010;2024-02-21T12:52:21;12.40;99.90
54461;DHT22;69977;49.414;11.010;2024-02-21T12:54:47;12.40;99.90
54461;DHT22;69977;49.414;11.010;2024-02-21T12:57:13;12.50;99.90
54461;DHT22;69977;49.414;11.010;2024-02-21T12:59:39;12.60;99.90
54461;DHT22;69977;49.414;11.010;2024-02-21T13:02:05;12.60;99.90
54461;DHT22;69977;49.414;11.010;2024-02-21T13:04:31;12.60;99.90
54461;DHT22;69977;49.414;11.010;2024-02-21T13:06:57;12.60;99.90
54461;DHT22;69977;49.414;11.010;2024-02-21T13:09:23;12.60;99.90
54461;DHT22;69977;49.414;11.010;2024-02-21T13:11:49;12.60;99.90
54461;DHT22;69977;49.414;11.010;2024-02-21T13:14:16;12.60;99.90
54461;DHT22;69977;49.414;11.010;2024-02-21T13:16:42;12.60;99.90
54461;DHT22;69977;49.414;11.010;2024-02-21T13:19:09;12.60;99.90
54461;DHT22;69977;49.414;11.010;2024-02-21T13:21:35;12.70;99.90
54461;DHT22;69977;49.414;11.010;2024-02-21T13:24:02;12.80;99.90
54461;DHT22;69977;49.414;11.010;2024-02-21T13:26:28;12.90;99.90
54461;DHT22;69977;49.414;11.010;2024-02-21T13:28:54;12.80;99.90
54461;DHT22;69977;49.414;11.010;2024-02-21T13:31:20;12.80;99.90
54461;DHT22;69977;49.414;11.010;2024-02-21T13:33:46;12.70;99.90
54461;DHT22;69977;49.414;11.010;2024-02-21T13:36:12;12.80;99.90
54461;DHT22;69977;49.414;11.010;2024-02-21T13:38:38;12.90;99.90
54461;DHT22;69977;49.414;11.010;2024-02-21T13:41:05;12.80;99.90
54461;DHT22;69977;49.414;11.010;2024-02-21T13:43:34;12.70;99.90
54461;DHT22;69977;49.414;11.010;2024-02-21T13:46:01;12.60;99.90
54461;DHT22;69977;49.414;11.010;2024-02-21T13:48:35;12.70;99.90
54461;DHT22;69977;49.414;11.010;2024-02-21T13:51:01;12.70;99.90
54461;DHT22;69977;49.414;11.010;2024-02-21T13:53:30;12.70;99.90
54461;DHT22;69977;49.414;11.010;2024-02-21T13:55:56;12.60;99.90
54461;DHT22;69977;49.414;11.010;2024-02-21T13:58:22;12.60;99.90
54461;DHT22;69977;49.414;11.010;2024-02-21T14:00:47;12.70;99.90
54461;DHT22;69977;49.414;11.010;2024-02-21T14:03:13;12.70;99.90
54461;DHT22;69977;49.414;11.010;2024-02-21T14:05:39;12.60;99.90
54461;DHT22;69977;49.414;11.010;2024-02-21T14:08:06;12.70;99.90
54461;DHT22;69977;49.414;11.010;2024-02-21T14:10:32;12.70;99.90
54461;DHT22;69977;49.414;11.010;2024-02-21T14:12:59;12.70;99.90
54461;DHT22;69977;49.414;11.010;2024-02-21T14:15:26;12.70;99.90
54461;DHT22;69977;49.414;11.010;2024-02-21T14:17:51;12.60;99.90
54461;DHT22;69977;49.414;11.010;2024-02-21T14:20:17;12.60;99.90
54461;DHT22;69977;49.414;11.010;2024-02-21T14:22:43;12.70;99.90
54461;DHT22;69977;49.414;11.010;2024-02-21T14:25:09;12.90;99.90
54461;DHT22;69977;49.414;11.010;2024-02-21T14:27:35;12.80;99.90
54461;DHT22;69977;49.414;11.010;2024-02-21T14:30:04;12.70;99.90
54461;DHT22;69977;49.414;11.010;2024-02-21T14:32:30;12.60;99.90
54461;DHT22;69977;49.414;11.010;2024-02-21T14:34:56;12.40;99.90
54461;DHT22;69977;49.414;11.010;2024-02-21T14:37:22;12.40;99.90
54461;DHT22;69977;49.414;11.010;2024-02-21T14:39:48;12.40;99.90
54461;DHT22;69977;49.414;11.010;2024-02-21T14:42:14;12.30;99.90
54461;DHT22;69977;49.414;11.010;2024-02-21T14:44:39;12.40;99.90
54461;DHT22;69977;49.414;11.010;2024-02-21T14:47:06;12.40;99.90
54461;DHT22;69977;49.414;11.010;2024-02-21T14:49:32;12.40;99.90
54461;DHT22;69977;49.414;11.010;2024-02-21T14:51:58;12.30;99.90
54461;DHT22;69977;49.414;11.010;2024-02-21T14:54:24;12.20;99.90
54461;DHT22;69977;49.414;11.010;2024-02-21T14:56:50;12.20;99.90
54461;DHT22;69977;49.414;11.010;2024-02-21T14:59:16;12.10;99.90
54461;DHT22;69977;49.414;11.010;2024-02-21T15:01:44;12.10;99.90
54461;DHT22;69977;49.414;11.010;2024-02-21T15:04:10;12.00;99.90
54461;DHT22;69977;49.414;11.010;2024-02-21T15:06:36;12.10;99.90
54461;DHT22;69977;49.414;11.010;2024-02-21T15:09:03;12.00;99.90
54461;DHT22;69977;49.414;11.010;2024-02-21T15:11:29;12.00;99.90
54461;DHT22;69977;49.414;11.010;2024-02-21T15:13:55;11.90;99.90
54461;DHT22;69977;49.414;11.010;2024-02-21T15:16:21;11.80;99.90
54461;DHT22;69977;49.414;11.010;2024-02-21T15:18:47;11.70;99.90
54461;DHT22;69977;49.414;11.010;2024-02-21T15:21:13;11.70;99.90
54461;DHT22;69977;49.414;11.010;2024-02-21T15:23:41;11.70;99.90
54461;DHT22;69977;49.414;11.010;2024-02-21T15:26:07;11.70;99.90
54461;DHT22;69977;49.414;11.010;2024-02-21T15:28:33;11.70;99.90